createdAt,value
2023-04-12T00:00:26.781Z,77.6
2023-04-12T00:05:26.777Z,78.2
2023-04-12T00:10:26.768Z,79.5
2023-04-12T00:15:26.786Z,80.1
2023-04-12T00:20:26.786Z,81.4
2023-04-12T00:25:26.827Z,83.3
2023-04-12T00:30:26.794Z,84.8
2023-04-12T00:35:26.798Z,86.2
2023-04-12T00:40:26.795Z,87.2
2023-04-12T00:45:26.803Z,88.3
2023-04-12T00:50:26.801Z,89.1
2023-04-12T00:55:26.841Z,90.2
2023-04-12T01:00:26.817Z,91.5
2023-04-12T01:05:26.817Z,92.4
2023-04-12T01:10:26.836Z,92.8
2023-04-12T01:15:26.816Z,93.5
2023-04-12T01:20:26.827Z,94.1
2023-04-12T01:25:26.857Z,94.7
2023-04-12T01:30:26.825Z,95.2
2023-04-12T01:35:26.853Z,95.5
2023-04-12T01:40:26.824Z,96.0
2023-04-12T01:45:26.864Z,96.3
2023-04-12T01:50:26.840Z,96.6
2023-04-12T01:55:26.934Z,96.7
2023-04-12T02:00:26.844Z,96.9
2023-04-12T02:05:26.854Z,97.2
2023-04-12T02:10:26.849Z,97.5
2023-04-12T02:15:26.865Z,98.0
2023-04-12T02:20:26.861Z,98.2
2023-04-12T02:25:26.885Z,98.3
2023-04-12T02:30:26.898Z,98.5
2023-04-12T02:35:26.885Z,98.7
2023-04-12T02:40:26.871Z,98.7
2023-04-12T02:45:26.870Z,98.8
2023-04-12T02:50:26.881Z,98.9
2023-04-12T02:55:27.000Z,98.8
2023-04-12T03:05:26.878Z,98.1
2023-04-12T03:10:26.892Z,98.1
2023-04-12T03:15:26.881Z,98.0
2023-04-12T03:20:26.894Z,97.7
2023-04-12T03:25:26.915Z,97.7
2023-04-12T03:30:26.893Z,97.2
2023-04-12T03:35:26.908Z,97.2
2023-04-12T03:40:26.894Z,97.3
2023-04-12T03:45:26.905Z,97.5
2023-04-12T03:50:26.899Z,97.8
2023-04-12T03:55:27.073Z,97.9
2023-04-12T04:00:26.902Z,98.2
2023-04-12T04:05:26.917Z,98.5
2023-04-12T04:10:26.921Z,99.1
2023-04-12T04:15:26.919Z,99.9
2023-04-12T04:20:27.842Z,100.0
2023-04-12T04:25:26.948Z,100.0
2023-04-12T04:30:26.934Z,100.0
2023-04-12T04:35:26.948Z,100.0
2023-04-12T04:40:26.936Z,100.0
2023-04-12T04:45:27.005Z,100.0
2023-04-12T04:50:26.942Z,100.0
2023-04-12T04:55:26.974Z,100.0
2023-04-12T05:00:26.948Z,100.0
2023-04-12T05:05:26.965Z,100.0
2023-04-12T05:25:26.985Z,100.0
2023-04-12T05:30:26.961Z,100.0
2023-04-12T05:35:26.990Z,100.0
2023-04-12T05:40:26.990Z,100.0
2023-04-12T05:45:26.969Z,100.0
2023-04-12T05:50:26.978Z,100.0
2023-04-12T06:00:27.018Z,100.0
2023-04-12T06:10:26.992Z,100.0
2023-04-12T06:15:27.002Z,100.0
2023-04-12T06:20:27.008Z,100.0
2023-04-12T06:25:27.027Z,100.0
2023-04-12T06:30:27.086Z,100.0
2023-04-12T06:35:27.015Z,100.0
2023-04-12T06:40:27.054Z,100.0
2023-04-12T06:45:27.008Z,100.0
2023-04-12T06:55:27.087Z,100.0
2023-04-12T07:00:27.050Z,100.0
2023-04-12T07:05:27.013Z,100.0
2023-04-12T07:10:27.024Z,100.0
2023-04-12T07:15:27.025Z,100.0
2023-04-12T07:20:27.030Z,100.0
2023-04-12T07:25:27.051Z,100.0
2023-04-12T07:30:27.057Z,100.0
2023-04-12T07:35:27.042Z,100.0
2023-04-12T07:40:27.041Z,100.0
2023-04-12T07:45:27.040Z,100.0
2023-04-12T07:50:27.046Z,100.0
2023-04-12T07:55:27.052Z,100.0
2023-04-12T08:00:27.163Z,100.0
2023-04-12T08:05:27.122Z,100.0
2023-04-12T08:10:27.050Z,100.0
2023-04-12T08:15:27.137Z,100.0
2023-04-12T08:20:27.060Z,100.0
2023-04-12T08:25:27.096Z,100.0
2023-04-12T08:30:27.081Z,100.0
2023-04-12T08:35:27.103Z,100.0
2023-04-12T08:40:27.095Z,99.6
2023-04-12T08:45:27.090Z,99.6
2023-04-12T08:50:27.084Z,99.2
2023-04-12T08:55:27.091Z,97.4
2023-04-12T09:00:27.139Z,97.4
2023-04-12T09:05:27.272Z,98.2
2023-04-12T09:10:27.148Z,97.7
2023-04-12T09:15:27.086Z,98.6
2023-04-12T09:20:27.102Z,97.5
2023-04-12T09:25:27.098Z,96.7
2023-04-12T09:30:27.108Z,95.6
2023-04-12T09:35:27.135Z,96.8
2023-04-12T09:40:27.129Z,93.9
2023-04-12T09:45:27.179Z,88.3
2023-04-12T09:50:27.138Z,88.3
2023-04-12T09:55:27.118Z,87.9
2023-04-12T10:00:27.277Z,89.1
2023-04-12T10:05:28.158Z,85.1
2023-04-12T10:10:27.129Z,86.6
2023-04-12T10:15:27.155Z,81.8
2023-04-12T10:20:29.337Z,82.4
2023-04-12T10:25:27.131Z,80.7
2023-04-12T10:30:27.163Z,82.5
2023-04-12T10:35:27.245Z,82.1
2023-04-12T10:40:27.166Z,81.9
2023-04-12T10:45:27.169Z,79.0
2023-04-12T10:50:27.152Z,78.1
2023-04-12T10:55:27.205Z,80.1
2023-04-12T11:00:27.184Z,80.5
2023-04-12T11:05:27.240Z,79.5
2023-04-12T11:10:27.163Z,76.0
2023-04-12T11:15:27.257Z,77.1
2023-04-12T11:20:27.230Z,76.2
2023-04-12T11:25:27.179Z,72.7
2023-04-12T11:30:27.198Z,73.6
2023-04-12T11:35:27.206Z,73.6
2023-04-12T11:40:27.186Z,69.6
2023-04-12T11:45:27.199Z,70.5
2023-04-12T11:50:27.190Z,66.8
2023-04-12T11:55:27.194Z,74.8
2023-04-12T12:00:27.194Z,76.3
2023-04-12T12:05:27.335Z,77.3
2023-04-12T12:10:43.702Z,75.4
2023-04-12T12:15:27.267Z,73.6
2023-04-12T12:20:27.203Z,77.5
2023-04-12T12:25:27.213Z,72.7
2023-04-12T12:30:27.206Z,72.6
2023-04-12T12:35:27.250Z,73.7
2023-04-12T12:40:27.216Z,72.5
2023-04-12T12:45:27.276Z,74.2
2023-04-12T12:50:27.257Z,69.1
2023-04-12T12:55:27.224Z,67.1
2023-04-12T13:00:27.229Z,70.2
2023-04-12T13:05:27.279Z,68.8
2023-04-12T13:10:27.276Z,73.2
2023-04-12T13:15:27.252Z,70.1
2023-04-12T13:20:27.241Z,68.1
2023-04-12T13:25:27.239Z,69.7
2023-04-12T13:30:27.248Z,56.6
2023-04-12T13:35:27.288Z,55.4
2023-04-12T13:40:27.255Z,53.6
2023-04-12T13:45:27.277Z,56.3
2023-04-12T13:50:27.258Z,54.9
2023-04-12T13:55:27.290Z,52.0
2023-04-12T14:00:27.270Z,54.3
2023-04-12T14:05:27.306Z,58.0
2023-04-12T14:10:27.282Z,55.6
2023-04-12T14:15:27.579Z,57.1
2023-04-12T14:20:27.272Z,57.1
2023-04-12T14:25:27.294Z,57.0
2023-04-12T14:30:27.301Z,56.4
2023-04-12T14:35:27.330Z,56.1
2023-04-12T14:40:27.280Z,59.7
2023-04-12T14:45:27.293Z,61.4
2023-04-12T14:50:27.300Z,58.8
2023-04-12T14:55:27.314Z,60.9
2023-04-12T15:00:27.348Z,60.6
2023-04-12T15:05:27.369Z,62.4
2023-04-12T15:10:27.302Z,61.4
2023-04-12T15:15:27.317Z,62.9
2023-04-12T15:20:27.317Z,63.5
2023-04-12T15:25:27.328Z,65.2
2023-04-12T15:30:27.315Z,65.3
2023-04-12T15:35:27.586Z,65.7
2023-04-12T15:40:27.332Z,66.6
2023-04-12T15:42:27.549Z,66.6
2023-04-12T15:45:27.365Z,66.6
2023-04-12T15:50:27.337Z,68.0
2023-04-12T15:55:27.338Z,69.2
2023-04-12T16:00:27.370Z,67.8
2023-04-12T16:10:27.372Z,68.5
2023-04-12T16:15:27.360Z,69.6
2023-04-12T16:20:27.354Z,70.4
2023-04-12T16:25:27.380Z,70.3
2023-04-12T16:30:27.393Z,71.0
2023-04-12T16:35:27.374Z,70.2
2023-04-12T16:40:27.392Z,71.0
2023-04-12T16:45:27.379Z,71.8
2023-04-12T16:50:27.376Z,70.4
2023-04-12T16:55:27.369Z,69.0
2023-04-12T17:00:27.384Z,68.0
2023-04-12T17:05:27.386Z,67.3
2023-04-12T17:10:27.412Z,66.9
2023-04-12T17:15:27.395Z,66.5
2023-04-12T17:20:27.419Z,66.6
2023-04-12T17:25:27.500Z,67.5
2023-04-12T17:30:27.393Z,68.3
2023-04-12T17:35:27.400Z,70.0
2023-04-12T17:40:27.428Z,70.0
2023-04-12T17:45:27.398Z,71.0
2023-04-12T17:50:27.399Z,72.8
2023-04-12T17:55:27.410Z,72.8
2023-04-12T18:00:27.415Z,73.2
2023-04-12T18:05:27.423Z,74.8
2023-04-12T18:10:27.467Z,75.7
2023-04-12T18:15:27.431Z,75.2
2023-04-12T18:20:27.505Z,75.0
2023-04-12T18:25:27.497Z,76.2
2023-04-12T18:30:27.466Z,77.4
2023-04-12T18:35:27.437Z,79.1
2023-04-12T18:40:27.479Z,80.8
2023-04-12T18:45:27.448Z,82.0
2023-04-12T18:50:27.443Z,83.0
2023-04-12T18:55:27.772Z,83.5
2023-04-12T19:00:28.826Z,86.1
2023-04-12T19:05:27.454Z,86.1
2023-04-12T19:10:27.479Z,86.9
2023-04-12T19:15:27.450Z,88.1
2023-04-12T19:20:27.465Z,89.1
2023-04-12T19:25:27.452Z,89.1
2023-04-12T19:30:27.460Z,90.0
2023-04-12T19:35:27.455Z,90.5
2023-04-12T19:40:29.265Z,91.0
2023-04-12T19:45:27.497Z,91.7
2023-04-12T19:50:27.477Z,92.3
2023-04-12T20:00:27.478Z,93.2
2023-04-12T20:05:27.495Z,93.5
2023-04-12T20:10:27.506Z,93.7
2023-04-12T20:15:27.485Z,94.1
2023-04-12T20:20:27.484Z,94.3
2023-04-12T20:25:27.497Z,94.5
2023-04-12T20:30:27.508Z,95.1
2023-04-12T20:35:27.492Z,95.1
2023-04-12T20:40:27.521Z,95.7
2023-04-12T20:45:27.499Z,95.9
2023-04-12T20:50:27.507Z,96.2
2023-04-12T20:55:27.511Z,96.4
2023-04-12T21:00:27.510Z,96.6
2023-04-12T21:05:27.511Z,96.7
2023-04-12T21:10:27.683Z,96.8
2023-04-12T21:15:27.523Z,97.2
2023-04-12T21:20:27.546Z,97.1
2023-04-12T21:25:27.519Z,97.2
2023-04-12T21:30:27.551Z,97.4
2023-04-12T21:35:27.535Z,97.2
2023-04-12T21:40:27.754Z,96.9
2023-04-12T21:45:27.543Z,96.9
2023-04-12T21:50:27.549Z,96.6
2023-04-12T21:55:27.548Z,96.6
2023-04-12T22:00:27.558Z,96.6
2023-04-12T22:05:27.552Z,96.0
2023-04-12T22:10:27.752Z,95.7
2023-04-12T22:15:27.552Z,95.7
2023-04-12T22:20:27.557Z,95.0
2023-04-12T22:25:27.564Z,94.4
2023-04-12T22:30:27.563Z,93.1
2023-04-12T22:35:27.559Z,92.6
2023-04-12T22:40:27.700Z,91.7
2023-04-12T22:45:27.572Z,90.4
2023-04-12T22:50:27.574Z,90.0
2023-04-12T22:55:27.571Z,89.2
2023-04-12T23:00:27.582Z,88.6
2023-04-12T23:05:27.667Z,86.3
2023-04-12T23:10:27.732Z,86.2
2023-04-12T23:15:27.598Z,87.7
2023-04-12T23:20:27.609Z,89.9
2023-04-12T23:25:27.595Z,92.0
2023-04-12T23:30:27.621Z,93.5
2023-04-12T23:35:27.603Z,93.9
2023-04-12T23:40:27.780Z,94.5
2023-04-12T23:45:27.608Z,94.6
2023-04-12T23:50:27.612Z,94.8
2023-04-12T23:55:27.612Z,95.4
